Detailed Flight Report of Safa INALTEKIN ;
Number CXD159 
Departure Aerodrome LTFJ 
Arrival Aerodrome UUWW

Map generated by the Great Circle Mapper - copyright © Karl L. Swartz.

Pilot In Command CXD159 : Safa Inaltekin
Aircraft B738 / TC-KRD
Date Of Flight 2019-11-03
Departure Time 14:34 UTC
Arrival Time 17:49 UTC
Block Time 03:15
Distance 1,257 Nm.
Used Fuel 15,890 Lbs.
   
Detailed Flight Log [2019/11/03 14:25:00]
Flight IATA:C159
Pilot Number:159
Company ICAO:CXD
Aircraft Type:B738
Aircraft Registration:TC-KRD
Departing Airport: LTFJ
Destination Airport: UUWW
Alternate Airport:UUEE
Online: VATSIM
Route:KUMR1B KUMRU UA16 EKSEN UT337 EKNUD T337 OSVEL UT337 YASEN UL619 MAKOL N617 ELNIK N180 RONIT R119 IN
Flight Level:FL380
No pause
14:25 Zero fuel Weight: 121652 Lbs, Fuel Weight: 19691 Lbs
14:25 VATSIM:LTFJ 031350Z 24007KT CAVOK 18/09 Q1016 NOSIG
14:25 VATSIM:UUWW 031400Z 19005MPS 6000 -DZ OVC004 02/01 Q1007 R24/290045 NOSIG
14:31 Parking Brakes off
14:42 VR= 157 Knots
14:43 V2= 167 Knots
14:43 Take-off
14:43 Take off Weight: 140722 Lbs
14:43 Wind: 176º @ 009 Knots Heading: 185º
14:43 POS N36º 53´ 49´´ E030º 48´ 33´´
14:43 N11 100 N12 100
14:43 Gear Up: 169 Knots
14:43 Flaps:5º at 169 Knots
14:43 Flaps:2º at 178 Knots
14:43 Flaps:1º at 183 Knots
14:43
Flaps:Up at 209 Knots
14:58 Wind:270º@037 Knots Heading: 020º Ground Speed: 481 Knots Altitude 29698 ft
15:06 TOC
15:06 Fuel Weight: 14993 Lb
15:13 Wind:263º@032 Knots Heading: 331º Ground Speed: 446 Knots Altitude 38051 ft
15:28 Wind:261º@025 Knots Heading: 340º Ground Speed: 451 Knots Altitude 38057 ft
15:43 Wind:247º@016 Knots Heading: 011º Ground Speed: 461 Knots Altitude 38156 ft
15:58 Wind:223º@013 Knots Heading: 019º Ground Speed: 462 Knots Altitude 38205 ft
16:13 Wind:207º@010 Knots Heading: 014º Ground Speed: 458 Knots Altitude 38192 ft
16:28 Wind:204º@008 Knots Heading: 018º Ground Speed: 455 Knots Altitude 38270 ft
16:43 Wind:232º@008 Knots Heading: 015º Ground Speed: 453 Knots Altitude 38297 ft
16:58 Wind:274º@009 Knots Heading: 039º Ground Speed: 451 Knots Altitude 38359 ft
17:09 TOD
17:09 Fuel Weight: 5374 Lb
17:13 Wind:314º@017 Knots Heading: 040
º Ground Speed: 451 Knots Altitude 34688 ft
17:28 Wind:305º@008 Knots Heading: 002º Ground Speed: 298 Knots Altitude 10741 ft
17:36 Flaps:1º at 201 Knots
17:36 Flaps:2º at 192 Knots
17:36 Flaps:5º at 187 Knots
17:37 Gear Down: 180 Knots
17:37 Flaps:10º at 182 Knots
17:37 Flaps:15º at 181 Knots
17:38 Flaps:25º at 163 Knots
17:38 Flaps:30º at 159 Knots
17:38 Flaps:Full at 157 Knots
17:39 TouchDown:Rate -106 ft/min Speed: 126 Knots
17:39 VATSIM:UUWW 031700Z 20005G10MPS 3600 -DZ BR OVC003 03/02 Q1008 R24/290045 TEMPO 2000 BR BKN002
17:39 Land
17:39 Wind:339º@006 Knots
17:39 Heading: 248º
17:39 Flight Duration: 02:56
17:39 Landing Weight: 125803 Lbs
17:39 POS N55º 35´ 32´´ E037º 15´ 56´´
17:46 Parking brakes on
17:46 Block to Block Duration: 03:15
17:46 Final Fuel: 3800 Lbls
17:46 Spent Fuel: 15890 Lbls
17:46 Flight Length: 1257 NM
17:46 TOD Land Length:
167 NM

Text Link of Flight Log http://www.candanair.net/acars/logs/CXD15920191103142500.txt
   

[ Back ]